createdAt,value
2018-09-07T00:00:02.055Z,30.60
2018-09-07T00:01:07.572Z,30.80
2018-09-07T00:02:13.084Z,30.50
2018-09-07T00:03:18.602Z,30.70
2018-09-07T00:04:24.113Z,31.00
2018-09-07T00:05:29.630Z,30.60
2018-09-07T00:06:35.149Z,31.20
2018-09-07T00:07:40.667Z,30.50
2018-09-07T00:08:46.184Z,30.90
2018-09-07T00:09:51.702Z,32.00
2018-09-07T00:10:57.208Z,32.00
2018-09-07T00:12:02.725Z,31.70
2018-09-07T00:13:08.242Z,32.50
2018-09-07T00:14:13.754Z,32.10
2018-09-07T00:15:19.287Z,31.30
2018-09-07T00:16:24.787Z,32.80
2018-09-07T00:17:30.299Z,31.50
2018-09-07T00:18:35.818Z,32.20
2018-09-07T00:19:41.332Z,31.70
2018-09-07T00:20:46.851Z,32.00
2018-09-07T00:21:52.368Z,32.60
2018-09-07T00:22:57.880Z,31.70
2018-09-07T00:24:03.395Z,32.30
2018-09-07T00:25:08.912Z,32.40
2018-09-07T00:26:14.429Z,31.40
2018-09-07T00:27:19.942Z,31.70
2018-09-07T00:28:25.465Z,32.80
2018-09-07T00:29:30.971Z,31.90
2018-09-07T00:30:36.488Z,33.30
2018-09-07T00:31:42.005Z,33.30
2018-09-07T00:32:47.516Z,32.40
2018-09-07T00:33:53.030Z,33.10
2018-09-07T00:34:58.550Z,33.70
2018-09-07T00:36:04.064Z,33.90
2018-09-07T00:37:09.582Z,32.40
2018-09-07T00:38:15.101Z,33.20
2018-09-07T00:39:20.612Z,33.80
2018-09-07T00:40:26.129Z,33.50
2018-09-07T00:41:31.665Z,34.10
2018-09-07T00:42:37.167Z,33.60
2018-09-07T00:43:42.677Z,35.20
2018-09-07T00:44:48.186Z,34.60
2018-09-07T00:45:53.704Z,34.70
2018-09-07T00:46:59.225Z,34.90
2018-09-07T00:48:04.736Z,36.00
2018-09-07T00:49:10.245Z,35.30
2018-09-07T00:50:15.763Z,36.10
2018-09-07T00:51:21.281Z,35.50
2018-09-07T00:52:26.795Z,37.50
2018-09-07T00:53:32.310Z,39.60
2018-09-07T00:54:37.826Z,37.80
2018-09-07T00:55:43.337Z,40.20
2018-09-07T00:56:48.859Z,40.80
2018-09-07T00:57:54.369Z,37.50
2018-09-07T00:58:59.884Z,40.70
2018-09-07T01:00:05.398Z,41.40
2018-09-07T01:01:10.922Z,40.60
2018-09-07T01:02:16.440Z,43.40
2018-09-07T01:03:21.948Z,40.00
2018-09-07T01:04:27.461Z,41.00
2018-09-07T01:05:32.977Z,40.70
2018-09-07T01:06:38.496Z,43.00
2018-09-07T01:07:44.014Z,41.10
2018-09-07T01:08:49.528Z,39.80
2018-09-07T01:09:55.043Z,42.30
2018-09-07T01:11:00.555Z,41.20
2018-09-07T01:12:06.070Z,38.90
2018-09-07T01:13:11.584Z,39.00
2018-09-07T01:14:17.095Z,38.90
2018-09-07T01:15:22.779Z,39.30
2018-09-07T01:16:28.132Z,41.20
2018-09-07T01:17:33.641Z,43.30
2018-09-07T01:18:39.160Z,45.30
2018-09-07T01:19:44.679Z,41.40
2018-09-07T01:20:50.188Z,43.50
2018-09-07T01:21:55.710Z,45.40
2018-09-07T01:23:01.220Z,44.70
2018-09-07T01:24:06.734Z,42.50
2018-09-07T01:25:12.253Z,45.40
2018-09-07T01:26:17.767Z,44.30
2018-09-07T01:27:23.279Z,42.80
2018-09-07T01:28:28.799Z,40.50
2018-09-07T01:29:34.313Z,43.10
2018-09-07T01:30:39.830Z,44.30
2018-09-07T01:31:45.347Z,44.80
2018-09-07T01:32:50.858Z,42.60
2018-09-07T01:33:56.374Z,43.10
2018-09-07T01:35:01.888Z,41.60
2018-09-07T01:36:07.403Z,41.30
2018-09-07T01:37:12.919Z,42.10
2018-09-07T01:38:18.437Z,41.90
2018-09-07T01:39:23.957Z,43.30
2018-09-07T01:40:29.468Z,41.80
2018-09-07T01:41:34.981Z,41.50
2018-09-07T01:42:40.496Z,42.20
2018-09-07T01:43:46.009Z,42.40
2018-09-07T01:44:51.530Z,43.20
2018-09-07T01:45:57.041Z,41.30
2018-09-07T01:47:02.572Z,40.00
2018-09-07T01:48:08.069Z,40.40
2018-09-07T01:49:13.586Z,40.60
2018-09-07T01:50:19.101Z,39.80
2018-09-07T01:51:24.619Z,39.30
2018-09-07T01:52:30.132Z,40.50
2018-09-07T01:53:35.645Z,39.40
2018-09-07T01:54:41.165Z,39.30
2018-09-07T01:55:46.675Z,39.20
2018-09-07T01:56:52.193Z,39.10
2018-09-07T01:57:57.703Z,38.30
2018-09-07T01:59:03.220Z,37.80
2018-09-07T02:00:08.738Z,37.30
2018-09-07T02:01:14.304Z,37.30
2018-09-07T02:02:19.767Z,36.20
2018-09-07T02:03:25.283Z,37.30
2018-09-07T02:04:30.800Z,38.00
2018-09-07T02:05:36.309Z,37.30
2018-09-07T02:06:41.829Z,37.80
2018-09-07T02:07:47.350Z,38.50
2018-09-07T02:08:52.862Z,38.60
2018-09-07T02:09:58.380Z,38.20
2018-09-07T02:11:03.893Z,38.40
2018-09-07T02:12:09.399Z,39.60
2018-09-07T02:13:14.916Z,40.70
2018-09-07T02:14:20.434Z,39.40
2018-09-07T02:15:25.950Z,40.10
2018-09-07T02:16:31.469Z,40.10
2018-09-07T02:17:36.977Z,39.80
2018-09-07T02:18:42.493Z,38.40
2018-09-07T02:19:48.011Z,39.30
2018-09-07T02:20:53.530Z,39.60
2018-09-07T02:21:59.039Z,40.00
2018-09-07T02:23:04.558Z,41.90
2018-09-07T02:24:10.093Z,40.50
2018-09-07T02:25:15.583Z,41.60
2018-09-07T02:26:21.105Z,40.40
2018-09-07T02:27:26.618Z,40.00
2018-09-07T02:28:32.136Z,40.60
2018-09-07T02:29:37.647Z,41.70
2018-09-07T02:30:43.166Z,42.10
2018-09-07T02:31:48.681Z,43.60
2018-09-07T02:32:54.195Z,44.20
2018-09-07T02:33:59.712Z,42.40
2018-09-07T02:35:05.224Z,40.40
2018-09-07T02:36:10.744Z,38.30
2018-09-07T02:37:16.251Z,39.70
2018-09-07T02:38:21.773Z,39.80
2018-09-07T02:39:27.288Z,42.00
2018-09-07T02:40:32.805Z,40.70
2018-09-07T02:41:38.321Z,40.90
2018-09-07T02:42:43.830Z,40.00
2018-09-07T02:43:49.363Z,42.50
2018-09-07T02:44:54.859Z,40.70
2018-09-07T02:46:00.378Z,40.00
2018-09-07T02:47:05.893Z,40.30
2018-09-07T02:48:11.406Z,39.10
2018-09-07T02:49:16.924Z,39.00
2018-09-07T02:50:22.439Z,39.10
2018-09-07T02:51:27.953Z,40.50
2018-09-07T02:52:33.469Z,39.50
2018-09-07T02:53:38.994Z,39.70
2018-09-07T02:54:44.498Z,41.70
2018-09-07T02:55:50.017Z,40.20
2018-09-07T02:56:55.533Z,40.20
2018-09-07T02:58:01.046Z,39.00
2018-09-07T02:59:06.559Z,37.70
2018-09-07T03:00:12.122Z,37.80
2018-09-07T03:01:17.595Z,37.90
2018-09-07T03:02:23.101Z,37.40
2018-09-07T03:03:28.625Z,39.10
2018-09-07T03:04:34.135Z,40.20
2018-09-07T03:05:39.649Z,40.70
2018-09-07T03:06:45.166Z,39.20
2018-09-07T03:07:50.694Z,37.20
2018-09-07T03:08:56.198Z,37.90
2018-09-07T03:10:01.718Z,37.50
2018-09-07T03:11:07.232Z,39.90
2018-09-07T03:12:12.742Z,38.70
2018-09-07T03:13:18.255Z,37.40
2018-09-07T03:14:23.774Z,38.30
2018-09-07T03:15:29.290Z,36.70
2018-09-07T03:16:34.808Z,37.50
2018-09-07T03:17:40.324Z,37.30
2018-09-07T03:18:45.834Z,37.90
2018-09-07T03:19:51.347Z,38.60
2018-09-07T03:20:56.860Z,38.80
2018-09-07T03:22:02.391Z,39.40
2018-09-07T03:23:07.890Z,37.50
2018-09-07T03:24:13.409Z,37.60
2018-09-07T03:25:18.933Z,39.00
2018-09-07T03:26:24.445Z,39.30
2018-09-07T03:27:29.952Z,39.50
2018-09-07T03:28:35.471Z,39.90
2018-09-07T03:29:40.987Z,38.10
2018-09-07T03:30:46.501Z,41.00
2018-09-07T03:31:52.015Z,39.90
2018-09-07T03:32:57.526Z,40.20
2018-09-07T03:34:03.045Z,37.60
2018-09-07T03:35:08.563Z,39.90
2018-09-07T03:36:14.073Z,39.40
2018-09-07T03:37:19.588Z,40.80
2018-09-07T03:38:25.103Z,39.80
2018-09-07T03:39:30.624Z,37.90
2018-09-07T03:40:36.134Z,38.70
2018-09-07T03:41:41.648Z,38.60
2018-09-07T03:42:47.163Z,40.20
2018-09-07T03:43:52.678Z,40.20
2018-09-07T03:44:58.195Z,41.40
2018-09-07T03:46:03.709Z,40.20
2018-09-07T03:47:09.224Z,39.10
2018-09-07T03:48:14.737Z,40.30
2018-09-07T03:49:20.255Z,42.60
2018-09-07T03:50:25.768Z,43.40
2018-09-07T03:51:31.296Z,44.70
2018-09-07T03:52:36.803Z,44.80
2018-09-07T03:53:42.313Z,44.80
2018-09-07T03:54:47.839Z,43.60
2018-09-07T03:55:53.349Z,45.30
2018-09-07T03:56:58.855Z,45.80
2018-09-07T03:58:04.380Z,42.80
2018-09-07T03:59:09.891Z,45.40
2018-09-07T04:00:15.405Z,43.10
2018-09-07T04:01:20.920Z,41.70
2018-09-07T04:02:26.434Z,42.20
2018-09-07T04:03:31.949Z,42.30
2018-09-07T04:04:37.795Z,40.00
2018-09-07T04:05:42.975Z,40.40
2018-09-07T04:06:48.493Z,40.20
2018-09-07T04:07:54.020Z,41.30
2018-09-07T04:08:59.520Z,39.80
2018-09-07T04:10:05.052Z,38.20
2018-09-07T04:11:10.621Z,38.90
2018-09-07T04:12:16.067Z,39.30
2018-09-07T04:13:21.582Z,41.00
2018-09-07T04:14:27.097Z,40.20
2018-09-07T04:15:32.608Z,41.00
2018-09-07T04:16:38.122Z,39.80
2018-09-07T04:17:43.642Z,40.70
2018-09-07T04:18:49.154Z,39.90
2018-09-07T04:19:54.677Z,42.50
2018-09-07T04:21:00.188Z,42.40
2018-09-07T04:22:05.700Z,41.70
2018-09-07T04:23:11.212Z,44.80
2018-09-07T04:24:16.734Z,41.00
2018-09-07T04:25:22.243Z,40.90
2018-09-07T04:26:27.762Z,41.10
2018-09-07T04:27:33.273Z,39.40
2018-09-07T04:28:38.783Z,40.20
2018-09-07T04:29:44.298Z,41.00
2018-09-07T04:30:49.816Z,40.20
2018-09-07T04:31:55.339Z,40.80
2018-09-07T04:33:00.841Z,41.80
2018-09-07T04:34:06.361Z,40.40
2018-09-07T04:35:11.875Z,40.90
2018-09-07T04:36:17.390Z,39.50
2018-09-07T04:37:22.910Z,40.40
2018-09-07T04:38:28.421Z,42.50
2018-09-07T04:39:33.945Z,40.60
2018-09-07T04:40:39.455Z,42.80
2018-09-07T04:41:44.968Z,44.00
2018-09-07T04:42:50.476Z,43.60
2018-09-07T04:43:55.991Z,42.90
2018-09-07T04:45:01.508Z,43.50
2018-09-07T04:46:07.025Z,44.20
2018-09-07T04:47:12.537Z,44.00
2018-09-07T04:49:46.718Z,42.60
2018-09-07T04:51:56.874Z,42.30
2018-09-07T04:53:07.531Z,40.70
2018-09-07T04:54:08.279Z,44.60
2018-09-07T04:55:09.904Z,42.30
2018-09-07T04:57:21.700Z,42.10
2018-09-07T04:58:29.185Z,44.70
2018-09-07T04:59:34.309Z,47.10
2018-09-07T05:02:50.827Z,42.80
2018-09-07T05:05:01.709Z,44.90
2018-09-07T05:06:11.229Z,44.10
2018-09-07T05:07:18.416Z,45.20
2018-09-07T05:08:18.825Z,47.70
2018-09-07T05:09:33.385Z,44.40
2018-09-07T05:10:32.158Z,43.70
2018-09-07T05:12:40.775Z,44.40
2018-09-07T05:13:46.113Z,43.60
2018-09-07T05:14:51.859Z,44.20
2018-09-07T05:16:01.693Z,44.40
2018-09-07T05:17:07.744Z,45.10
2018-09-07T05:18:12.362Z,44.40
2018-09-07T05:19:09.705Z,47.40
2018-09-07T05:20:28.758Z,44.50
2018-09-07T05:22:32.773Z,45.20
2018-09-07T05:23:30.114Z,43.90
2018-09-07T05:24:38.417Z,46.10
2018-09-07T05:25:59.837Z,44.90
2018-09-07T05:27:04.957Z,42.30
2018-09-07T05:27:56.466Z,43.90
2018-09-07T05:31:17.691Z,44.40
2018-09-07T05:33:30.815Z,44.70
2018-09-07T05:34:26.728Z,45.50
2018-09-07T05:35:39.336Z,42.30
2018-09-07T05:36:42.205Z,44.70
2018-09-07T05:38:52.157Z,43.20
2018-09-07T05:41:05.794Z,42.60
2018-09-07T05:42:07.921Z,43.00
2018-09-07T05:43:15.743Z,43.00
2018-09-07T05:44:27.733Z,44.20
2018-09-07T05:45:27.856Z,42.20
2018-09-07T05:46:30.004Z,42.30
2018-09-07T05:47:38.923Z,44.00
2018-09-07T05:48:43.245Z,43.30
2018-09-07T05:49:46.578Z,42.50
2018-09-07T05:50:55.638Z,42.20
2018-09-07T05:52:56.170Z,42.10
2018-09-07T05:54:00.684Z,40.90
2018-09-07T05:56:25.802Z,41.20
2018-09-07T05:57:33.276Z,39.80
2018-09-07T05:58:34.104Z,40.80
2018-09-07T05:59:33.808Z,41.90
2018-09-07T06:00:48.050Z,38.90
2018-09-07T06:01:46.522Z,41.10
2018-09-07T06:03:02.203Z,40.50
2018-09-07T06:04:08.658Z,41.00
2018-09-07T06:05:11.636Z,40.80
2018-09-07T06:06:06.731Z,39.80
2018-09-07T06:07:21.692Z,39.80
2018-09-07T06:08:27.750Z,38.10
2018-09-07T06:10:44.144Z,38.00
2018-09-07T06:11:43.854Z,38.40
2018-09-07T06:12:52.866Z,38.10
2018-09-07T06:14:58.721Z,37.60
2018-09-07T06:16:03.847Z,36.60
2018-09-07T06:17:09.694Z,36.20
2018-09-07T06:18:03.660Z,36.20
2018-09-07T06:19:10.221Z,36.30
2018-09-07T06:21:31.741Z,35.20
2018-09-07T06:22:27.141Z,32.90
2018-09-07T06:23:45.792Z,34.50
2018-09-07T06:24:44.367Z,35.60
2018-09-07T06:25:54.915Z,35.40
2018-09-07T06:27:00.362Z,34.80
2018-09-07T06:28:03.643Z,35.60
2018-09-07T06:29:08.055Z,35.20
2018-09-07T06:30:10.112Z,34.20
2018-09-07T06:31:18.110Z,34.50
2018-09-07T06:32:25.082Z,34.10
2018-09-07T06:33:32.344Z,33.60
2018-09-07T06:34:35.034Z,33.40
2018-09-07T06:35:44.982Z,33.10
2018-09-07T06:36:45.704Z,33.90
2018-09-07T06:37:57.692Z,30.50
2018-09-07T06:41:12.159Z,33.10
2018-09-07T06:43:23.335Z,31.50
2018-09-07T06:44:28.055Z,30.30
2018-09-07T06:45:27.859Z,30.40
2018-09-07T06:46:35.868Z,30.30
2018-09-07T06:47:54.299Z,32.20
2018-09-07T06:48:48.066Z,31.80
2018-09-07T06:49:52.167Z,30.00
2018-09-07T06:50:56.170Z,30.30
2018-09-07T06:52:14.002Z,30.50
2018-09-07T06:53:06.941Z,30.50
2018-09-07T06:56:26.932Z,29.10
2018-09-07T06:57:26.121Z,26.80
2018-09-07T06:58:35.141Z,27.80
2018-09-07T06:59:32.387Z,30.20
2018-09-07T07:01:45.718Z,28.10
2018-09-07T07:02:57.025Z,27.70
2018-09-07T07:04:04.066Z,29.20
2018-09-07T07:05:07.253Z,27.70
2018-09-07T07:07:27.949Z,27.70
2018-09-07T07:08:27.225Z,27.30
2018-09-07T07:09:34.837Z,26.30
2018-09-07T07:10:45.186Z,26.90
2018-09-07T07:11:37.513Z,28.30
2018-09-07T07:12:56.058Z,25.70
2018-09-07T07:14:07.843Z,26.30
2018-09-07T07:16:10.215Z,24.20
2018-09-07T07:17:14.116Z,26.40
2018-09-07T07:18:20.268Z,24.60
2018-09-07T07:21:40.467Z,23.70
2018-09-07T07:22:32.796Z,25.10
2018-09-07T07:24:54.833Z,22.70
2018-09-07T07:26:01.397Z,24.20
2018-09-07T07:26:59.560Z,23.10
2018-09-07T07:28:02.742Z,23.20
2018-09-07T07:29:01.426Z,20.70
2018-09-07T07:30:24.062Z,21.30
2018-09-07T07:31:31.444Z,22.50
2018-09-07T07:32:27.563Z,23.20
2018-09-07T07:33:41.498Z,20.10
2018-09-07T07:34:34.029Z,19.70
2018-09-07T07:35:44.287Z,19.70
2018-09-07T07:36:47.466Z,18.60
2018-09-07T07:37:53.210Z,19.30
2018-09-07T07:39:01.513Z,19.20
2018-09-07T07:40:07.153Z,20.50
2018-09-07T07:41:19.276Z,21.00
2018-09-07T07:42:20.588Z,20.40
2018-09-07T07:44:32.382Z,19.00
2018-09-07T07:47:46.588Z,18.00
2018-09-07T07:48:47.573Z,19.90
2018-09-07T07:49:56.285Z,19.20
2018-09-07T07:51:06.744Z,19.60
2018-09-07T07:52:02.036Z,20.10
2018-09-07T07:53:12.596Z,20.70
2018-09-07T07:54:31.546Z,20.60
2018-09-07T07:55:21.522Z,19.90
2018-09-07T07:56:36.177Z,19.50
2018-09-07T07:58:47.256Z,19.60
2018-09-07T07:59:44.188Z,18.30
2018-09-07T08:00:54.239Z,18.40
2018-09-07T08:01:53.729Z,18.60
2018-09-07T08:03:06.335Z,18.80
2018-09-07T08:04:10.543Z,18.70
2018-09-07T08:05:17.412Z,20.30
2018-09-07T08:06:18.860Z,19.00
2018-09-07T08:07:24.799Z,19.10
2018-09-07T08:08:29.316Z,19.10
2018-09-07T08:09:40.973Z,19.30
2018-09-07T08:10:45.414Z,19.00
2018-09-07T08:11:55.769Z,17.40
2018-09-07T08:12:45.842Z,18.10
2018-09-07T08:14:02.854Z,18.50
2018-09-07T08:16:16.902Z,20.00
2018-09-07T08:17:17.934Z,19.90
2018-09-07T08:18:19.682Z,20.10
2018-09-07T08:19:29.726Z,20.20
2018-09-07T08:20:29.765Z,20.30
2018-09-07T08:21:38.039Z,19.70
2018-09-07T08:22:43.476Z,20.80
2018-09-07T08:23:55.060Z,21.40
2018-09-07T08:25:02.645Z,20.80
2018-09-07T08:26:02.072Z,21.80
2018-09-07T08:26:58.974Z,20.10
2018-09-07T08:28:07.581Z,21.00
2018-09-07T08:29:14.255Z,21.20
2018-09-07T08:30:18.358Z,21.30
2018-09-07T08:31:25.638Z,21.20
2018-09-07T08:32:44.046Z,21.40
2018-09-07T08:33:46.855Z,21.70
2018-09-07T08:34:48.918Z,23.70
2018-09-07T08:35:57.426Z,22.40
2018-09-07T08:37:01.829Z,24.10
2018-09-07T08:38:01.329Z,21.30
2018-09-07T08:39:14.139Z,21.70
2018-09-07T08:40:09.128Z,21.40
2018-09-07T08:41:28.905Z,22.80
2018-09-07T08:42:26.965Z,22.30
2018-09-07T08:43:35.371Z,21.90
2018-09-07T08:44:32.513Z,22.10
2018-09-07T08:45:54.847Z,21.40
2018-09-07T08:46:52.298Z,22.10
2018-09-07T08:47:57.833Z,23.00
2018-09-07T08:49:00.310Z,22.50
2018-09-07T08:50:03.482Z,22.60
2018-09-07T08:51:12.108Z,23.30
2018-09-07T08:52:14.560Z,21.20
2018-09-07T08:53:19.486Z,21.60
2018-09-07T08:54:28.414Z,21.00
2018-09-07T08:55:47.765Z,20.20
2018-09-07T08:56:39.685Z,20.60
2018-09-07T08:57:39.078Z,20.40
2018-09-07T08:58:59.670Z,20.90
2018-09-07T09:00:59.279Z,21.60
2018-09-07T09:02:02.672Z,21.00
2018-09-07T09:03:08.001Z,21.50
2018-09-07T09:04:21.534Z,21.50
2018-09-07T09:06:18.681Z,19.30
2018-09-07T09:07:30.163Z,16.10
2018-09-07T09:08:27.405Z,16.70
2018-09-07T09:09:46.973Z,15.00
2018-09-07T09:10:53.639Z,11.80
2018-09-07T09:11:55.392Z,11.40
2018-09-07T09:13:03.699Z,11.00
2018-09-07T09:14:03.907Z,11.00
2018-09-07T09:15:14.668Z,11.30
2018-09-07T09:16:09.558Z,11.50
2018-09-07T09:17:14.176Z,11.70
2018-09-07T09:18:25.457Z,12.40
2018-09-07T09:20:47.900Z,13.50
2018-09-07T09:21:52.613Z,12.70
2018-09-07T09:22:49.449Z,13.90
2018-09-07T09:23:48.978Z,14.70
2018-09-07T09:25:01.141Z,14.40
2018-09-07T09:25:57.876Z,14.80
2018-09-07T09:27:16.824Z,15.50
2018-09-07T09:28:10.278Z,14.40
2018-09-07T09:29:25.051Z,13.40
2018-09-07T09:30:32.827Z,14.40
2018-09-07T09:31:37.237Z,14.10
2018-09-07T09:32:36.220Z,14.30
2018-09-07T09:33:38.996Z,13.60
2018-09-07T09:34:48.428Z,13.40
2018-09-07T09:35:47.927Z,13.80
2018-09-07T09:36:53.064Z,13.70
2018-09-07T09:38:02.074Z,14.10
2018-09-07T09:39:18.077Z,14.40
2018-09-07T09:40:22.882Z,14.20
2018-09-07T09:41:30.275Z,13.90
2018-09-07T09:42:39.385Z,14.30
2018-09-07T09:43:26.191Z,13.80
2018-09-07T09:44:41.452Z,13.80
2018-09-07T09:46:55.912Z,14.70
2018-09-07T09:47:53.258Z,14.80
2018-09-07T09:49:02.068Z,14.70
2018-09-07T09:50:08.845Z,14.80
2018-09-07T09:51:14.684Z,15.10
2018-09-07T09:52:11.824Z,16.40
2018-09-07T09:53:25.766Z,15.60
2018-09-07T09:54:21.572Z,16.30
2018-09-07T09:57:35.215Z,16.20
2018-09-07T09:58:52.649Z,16.60
2018-09-07T10:00:58.693Z,17.70
2018-09-07T10:02:06.484Z,17.50
2018-09-07T10:03:30.661Z,18.30
2018-09-07T10:04:17.562Z,18.80
2018-09-07T10:05:18.698Z,18.40
2018-09-07T10:06:25.467Z,18.10
2018-09-07T10:07:29.780Z,18.40
2018-09-07T10:09:51.609Z,17.80
2018-09-07T10:10:47.213Z,18.90
2018-09-07T10:11:55.523Z,17.60
2018-09-07T10:12:55.424Z,17.60
2018-09-07T10:14:05.162Z,17.70
2018-09-07T10:15:22.785Z,17.50
2018-09-07T10:16:15.010Z,17.40
2018-09-07T10:17:34.373Z,18.20
2018-09-07T10:18:31.517Z,17.50
2018-09-07T10:19:47.294Z,17.30
2018-09-07T10:20:38.711Z,17.80
2018-09-07T10:21:52.045Z,17.70
2018-09-07T10:22:49.888Z,17.80
2018-09-07T10:24:15.801Z,17.80
2018-09-07T10:25:15.239Z,17.30
2018-09-07T10:26:05.039Z,16.80
2018-09-07T10:27:18.486Z,17.60
2018-09-07T10:28:23.040Z,16.80
2018-09-07T10:29:29.975Z,16.30
2018-09-07T10:30:35.409Z,13.70
2018-09-07T10:33:07.175Z,14.30
2018-09-07T10:34:00.116Z,13.70
2018-09-07T10:35:01.866Z,14.20
2018-09-07T10:38:29.544Z,12.20
2018-09-07T10:39:18.701Z,11.60
2018-09-07T10:43:50.186Z,8.30
2018-09-07T10:46:48.149Z,6.20
2018-09-07T10:49:15.318Z,7.20
2018-09-07T10:50:17.057Z,7.60
2018-09-07T10:51:28.433Z,7.30
2018-09-07T10:52:31.829Z,7.50
2018-09-07T10:53:25.384Z,7.20
2018-09-07T10:54:37.161Z,6.50
2018-09-07T10:55:47.413Z,7.00
2018-09-07T10:56:47.422Z,6.80
2018-09-07T10:58:51.435Z,6.40
2018-09-07T11:00:05.984Z,6.60
2018-09-07T11:01:02.207Z,6.10
2018-09-07T11:02:08.564Z,6.20
2018-09-07T11:03:19.736Z,6.00
2018-09-07T11:04:30.191Z,5.70
2018-09-07T11:05:31.229Z,5.90
2018-09-07T11:06:35.429Z,6.00
2018-09-07T11:07:47.624Z,6.30
2018-09-07T11:08:38.927Z,6.10
2018-09-07T11:09:58.191Z,6.20
2018-09-07T11:11:02.500Z,6.00
2018-09-07T11:11:59.131Z,6.20
2018-09-07T11:13:08.969Z,5.80
2018-09-07T11:14:11.029Z,5.70
2018-09-07T11:16:24.253Z,6.10
2018-09-07T11:17:33.740Z,6.00
2018-09-07T11:18:36.053Z,5.70
2018-09-07T11:19:36.272Z,5.90
2018-09-07T11:20:36.682Z,5.90
2018-09-07T11:23:00.258Z,5.70
2018-09-07T11:24:09.071Z,6.00
2018-09-07T11:25:06.003Z,5.90
2018-09-07T11:27:21.482Z,6.20
2018-09-07T11:29:27.336Z,6.30
2018-09-07T11:30:44.655Z,6.70
2018-09-07T11:32:46.414Z,5.70
2018-09-07T11:35:02.510Z,5.80
2018-09-07T11:36:04.260Z,5.50
2018-09-07T11:37:17.584Z,5.50
2018-09-07T11:38:03.252Z,5.50
2018-09-07T11:39:27.437Z,5.90
2018-09-07T11:40:21.629Z,5.70
2018-09-07T11:41:23.455Z,5.40
2018-09-07T11:42:34.316Z,5.30
2018-09-07T11:43:41.699Z,5.50
2018-09-07T11:44:43.349Z,5.60
2018-09-07T11:45:48.581Z,5.10
2018-09-07T11:46:56.476Z,5.40
2018-09-07T11:47:58.536Z,4.80
2018-09-07T11:49:13.608Z,4.80
2018-09-07T11:50:08.176Z,4.50
2018-09-07T11:51:18.734Z,4.30
2018-09-07T11:53:33.912Z,4.00
2018-09-07T11:55:51.649Z,3.60
2018-09-07T11:56:48.065Z,3.80
2018-09-07T11:58:57.105Z,3.10
2018-09-07T12:00:05.394Z,3.20
2018-09-07T12:01:08.987Z,3.20
2018-09-07T12:02:10.091Z,3.00
2018-09-07T12:03:21.397Z,3.00
2018-09-07T12:05:36.975Z,3.50
2018-09-07T12:06:30.642Z,3.70
2018-09-07T12:07:44.483Z,3.50
2018-09-07T12:08:58.820Z,3.60
2018-09-07T12:12:04.376Z,3.50
2018-09-07T12:13:06.900Z,3.30
2018-09-07T12:16:23.877Z,3.10
2018-09-07T12:17:29.517Z,3.30
2018-09-07T12:18:35.049Z,3.30
2018-09-07T12:19:38.744Z,3.10
2018-09-07T12:20:51.452Z,3.60
2018-09-07T12:21:56.071Z,3.50
2018-09-07T12:23:03.143Z,3.60
2018-09-07T12:24:11.140Z,3.90
2018-09-07T12:25:13.721Z,3.80
2018-09-07T12:27:22.844Z,3.50
2018-09-07T12:28:26.234Z,3.30
2018-09-07T12:29:30.244Z,3.60
2018-09-07T12:30:29.525Z,3.40
2018-09-07T12:31:44.792Z,3.90
2018-09-07T12:32:52.791Z,3.90
2018-09-07T12:33:51.362Z,4.20
2018-09-07T12:36:01.214Z,3.90
2018-09-07T12:37:17.709Z,3.90
2018-09-07T12:38:20.482Z,4.00
2018-09-07T12:39:16.097Z,3.70
2018-09-07T12:40:35.455Z,4.00
2018-09-07T12:41:45.127Z,3.70
2018-09-07T12:42:46.124Z,3.80
2018-09-07T12:43:43.164Z,4.00
2018-09-07T12:44:45.322Z,3.90
2018-09-07T12:45:58.541Z,4.00
2018-09-07T12:47:07.704Z,4.00
2018-09-07T12:48:17.505Z,4.00
2018-09-07T12:49:14.443Z,3.80
2018-09-07T12:51:28.593Z,4.10
2018-09-07T12:52:20.408Z,3.90
2018-09-07T12:53:33.730Z,3.60
2018-09-07T12:54:43.468Z,3.60
2018-09-07T12:56:03.088Z,3.10
2018-09-07T12:56:50.037Z,3.30
2018-09-07T12:58:06.635Z,3.20
2018-09-07T12:59:07.669Z,3.00
2018-09-07T13:00:29.497Z,3.10
2018-09-07T13:01:30.729Z,2.70
2018-09-07T13:02:21.938Z,2.80
2018-09-07T13:05:31.380Z,2.80
2018-09-07T13:06:43.211Z,2.90
2018-09-07T13:07:43.790Z,2.80
2018-09-07T13:09:51.184Z,2.80
2018-09-07T13:11:12.391Z,2.80
2018-09-07T13:12:11.273Z,2.80
2018-09-07T13:13:22.349Z,2.90
2018-09-07T13:14:21.334Z,3.00
2018-09-07T13:15:22.256Z,2.90
2018-09-07T13:16:22.267Z,3.10
2018-09-07T13:18:40.513Z,3.10
2018-09-07T13:19:52.325Z,3.20
2018-09-07T13:20:47.288Z,3.40
2018-09-07T13:22:02.152Z,2.90
2018-09-07T13:23:07.682Z,3.20
2018-09-07T13:24:02.675Z,3.00
2018-09-07T13:25:15.178Z,3.10
2018-09-07T13:26:12.012Z,3.10
2018-09-07T13:27:29.841Z,3.10
2018-09-07T13:28:28.557Z,3.00
2018-09-07T13:29:47.780Z,3.20
2018-09-07T13:30:48.916Z,3.30
2018-09-07T13:32:41.047Z,2.70
2018-09-07T13:35:15.369Z,2.80
2018-09-07T13:36:02.174Z,2.60
2018-09-07T13:37:08.527Z,2.70
2018-09-07T13:38:21.748Z,2.30
2018-09-07T13:39:22.995Z,2.70
2018-09-07T13:40:28.932Z,2.40
2018-09-07T13:41:35.295Z,2.60
2018-09-07T13:42:39.802Z,2.60
2018-09-07T13:43:49.345Z,2.80
2018-09-07T13:44:57.854Z,2.90
2018-09-07T13:45:54.887Z,2.40
2018-09-07T13:47:20.605Z,2.50
2018-09-07T13:48:31.505Z,2.40
2018-09-07T13:50:11.712Z,2.50
2018-09-07T13:50:43.558Z,2.40
2018-09-07T13:52:21.050Z,2.80
2018-09-07T13:53:00.685Z,2.40
2018-09-07T13:54:07.038Z,2.50
2018-09-07T13:55:18.718Z,2.30
2018-09-07T13:58:28.685Z,2.50
2018-09-07T14:01:00.154Z,2.50
2018-09-07T14:01:48.988Z,2.70
2018-09-07T14:03:53.518Z,2.60
2018-09-07T14:04:55.051Z,2.50
2018-09-07T14:06:02.227Z,2.50
2018-09-07T14:07:23.655Z,2.60
2018-09-07T14:08:03.279Z,2.60
2018-09-07T14:10:21.515Z,2.60
2018-09-07T14:11:33.813Z,2.50
2018-09-07T14:13:51.961Z,2.70
2018-09-07T14:15:46.091Z,2.40
2018-09-07T14:16:53.937Z,2.70
2018-09-07T14:17:58.139Z,2.50
2018-09-07T14:19:02.142Z,2.30
2018-09-07T14:20:18.434Z,2.20
2018-09-07T14:22:20.092Z,2.50
2018-09-07T14:23:23.387Z,2.40
2018-09-07T14:24:31.472Z,2.20
2018-09-07T14:25:38.341Z,2.10
2018-09-07T14:26:50.230Z,2.10
2018-09-07T14:27:44.511Z,2.20
2018-09-07T14:28:47.484Z,2.30
2018-09-07T14:30:03.875Z,2.10
2018-09-07T14:31:03.681Z,2.40
2018-09-07T14:32:19.152Z,2.10
2018-09-07T14:33:11.683Z,2.60
2018-09-07T14:34:27.155Z,2.10
2018-09-07T14:36:33.017Z,2.00
2018-09-07T14:37:39.169Z,2.20
2018-09-07T14:38:46.352Z,2.20
2018-09-07T14:39:45.637Z,2.10
2018-09-07T14:40:49.535Z,2.10
2018-09-07T14:41:54.458Z,2.30
2018-09-07T14:43:06.858Z,2.10
2018-09-07T14:44:10.865Z,2.00
2018-09-07T14:45:10.062Z,2.40
2018-09-07T14:46:19.177Z,2.10
2018-09-07T14:47:31.072Z,2.20
2018-09-07T14:48:28.211Z,2.10
2018-09-07T14:49:37.953Z,2.30
2018-09-07T14:50:38.572Z,2.30
2018-09-07T14:51:45.655Z,2.20
2018-09-07T14:52:56.016Z,2.20
2018-09-07T14:53:57.891Z,2.10
2018-09-07T14:55:03.937Z,2.00
2018-09-07T14:56:06.588Z,2.30
2018-09-07T14:57:17.742Z,2.10
2018-09-07T14:58:23.690Z,2.10
2018-09-07T14:59:21.241Z,2.20
2018-09-07T15:02:45.640Z,2.20
2018-09-07T15:04:53.552Z,2.10
2018-09-07T15:05:53.553Z,2.10
2018-09-07T15:08:08.416Z,2.20
2018-09-07T15:09:10.984Z,2.10
2018-09-07T15:10:15.292Z,2.10
2018-09-07T15:11:23.806Z,2.00
2018-09-07T15:12:39.489Z,1.80
2018-09-07T15:13:39.896Z,2.20
2018-09-07T15:15:42.682Z,2.00
2018-09-07T15:17:02.555Z,1.70
2018-09-07T15:19:06.874Z,1.60
2018-09-07T15:20:14.470Z,2.00
2018-09-07T15:21:12.730Z,1.70
2018-09-07T15:22:32.970Z,1.80
2018-09-07T15:23:26.582Z,1.60
2018-09-07T15:24:47.160Z,1.70
2018-09-07T15:25:45.121Z,1.60
2018-09-07T15:26:44.311Z,1.70
2018-09-07T15:27:52.418Z,1.70
2018-09-07T15:28:54.984Z,2.00
2018-09-07T15:29:56.015Z,1.80
2018-09-07T15:33:19.591Z,1.70
2018-09-07T15:34:33.693Z,1.70
2018-09-07T15:35:26.368Z,1.50
2018-09-07T15:36:34.570Z,1.90
2018-09-07T15:37:46.256Z,1.60
2018-09-07T15:38:46.464Z,1.60
2018-09-07T15:39:44.632Z,1.70
2018-09-07T15:40:53.077Z,1.80
2018-09-07T15:42:01.450Z,1.80
2018-09-07T15:43:02.279Z,2.00
2018-09-07T15:44:19.997Z,1.70
2018-09-07T15:45:15.908Z,1.90
2018-09-07T15:46:23.400Z,2.00
2018-09-07T15:47:33.643Z,2.00
2018-09-07T15:48:40.819Z,2.00
2018-09-07T15:49:46.875Z,2.20
2018-09-07T15:50:55.586Z,1.80
2018-09-07T15:51:53.239Z,2.00
2018-09-07T15:53:00.212Z,1.70